Spanaway, Washington
Current Conditions -  °F | °C
As of 3:07 AM on Thursday 27 Nov 2014 (Local Time) from KTCM Reporting Station
Drizzle Drizzle  
Wind Chill: 52°   Ceiling: 6500
Heat Index: 52°   Visibility: 10mi
Dew Point: 50°   Wind: 14mph
Humidity: 94%   Direction: 180°S
Pressure: 29.89"   Gusts: NA
Location:  47.07°N, 122.41°W
Report Text: KTCM 271107Z AUTO 18012KT 10SM -DZ FEW045 OVC065 11/10 A2989 RMK AO2 RAE1057DZB1107 CIG 044 RWY34 $
Loading
Personal Weather Stations






























Interactive Weather Map New forecast layout! Learn more

10-Day Weather Forecast

Advertisements
Track Severe Weather on mobile